Date,TemperatureHighF,TemperatureAvgF,TemperatureLowF,DewpointHighF,DewpointAvgF,DewpointLowF,HumidityHigh,HumidityAvg,HumidityLow,PressureMaxIn,PressureMinIn,WindSpeedMaxMPH,WindSpeedAvgMPH,GustSpeedMaxMPH,PrecipitationSumIn
2013-1-1,45,34,27,32,28,16,100,84,31,0.00,40.00,17,4,23,0.00
2013-1-2,45,41,37,25,20,14,52,43,29,0.00,40.00,19,16,24,0.00
2013-1-3,40,36,32,34,25,16,100,66,39,0.00,40.00,20,13,27,0.00
2013-1-4,46,40,35,44,40,35,100,98,73,0.00,40.00,20,9,26,0.01
2013-1-5,45,40,35,38,35,30,100,85,61,0.00,40.00,19,17,24,0.01
2013-1-6,39,38,37,39,38,37,100,100,100,0.00,40.00,18,14,24,0.06
2013-1-7,45,41,37,45,41,37,100,100,100,0.00,40.00,18,14,24,0.19
2013-1-8,47,43,39,47,43,39,100,100,100,0.00,40.00,19,16,24,0.35
2013-1-9,45,37,32,45,37,32,100,100,100,0.00,40.00,18,12,24,0.38
2013-1-10,38,32,32,38,27,-100,100,95,100,0.00,40.00,0,0,0,0.05
2013-1-11,32,26,22,32,26,22,100,98,96,0.00,40.00,0,0,3,0.00
2013-1-12,33,24,22,31,24,21,98,97,93,0.00,40.00,0,0,2,0.00
2013-1-13,32,24,21,30,23,20,98,96,92,0.00,40.00,0,0,2,0.00
2013-1-28,34,32,32,34,32,32,100,100,100,0.00,40.00,19,16,23,0.03
2013-1-29,38,36,33,38,36,33,100,100,100,0.00,40.00,19,17,24,0.01
2013-1-30,41,39,36,41,39,36,100,100,100,0.00,40.00,19,18,24,0.05
2013-1-31,40,38,36,40,38,36,100,100,100,0.00,40.00,18,15,24,0.03
2013-2-1,40,38,35,40,38,35,100,100,100,0.00,40.00,10,6,18,0.06
2013-2-2,49,45,37,39,31,22,100,61,36,0.00,40.00,20,14,24,0.01
2013-2-3,39,36,34,38,36,34,100,100,94,0.00,40.00,14,6,20,0.08
2013-2-4,41,36,34,41,36,34,100,99,87,0.00,40.00,17,10,24,0.07
2013-2-5,38,36,33,38,36,33,100,100,100,0.00,40.00,19,14,24,0.27
2013-2-6,37,35,33,37,35,33,100,100,100,0.00,40.00,18,15,24,0.50
2013-2-7,34,32,31,34,32,30,100,99,90,0.00,40.00,18,6,24,0.09
2013-2-8,33,32,30,33,32,30,100,100,100,0.00,40.00,13,8,22,0.01
2013-2-9,36,34,32,36,34,32,100,100,98,0.00,40.00,13,7,18,0.04
2013-2-10,34,33,32,34,33,32,100,100,100,0.00,40.00,11,8,20,0.02
2013-2-11,39,35,32,39,35,32,100,100,100,0.00,40.00,13,9,22,0.01
2013-2-12,40,38,36,40,38,36,100,100,100,0.00,40.00,19,15,24,0.05
2013-2-13,39,36,33,39,36,33,100,100,100,0.00,40.00,18,12,24,0.06
2013-2-14,40,37,33,40,37,32,100,100,95,0.00,40.00,18,10,23,0.01
2013-2-15,53,43,36,43,39,36,100,88,62,0.00,40.00,17,9,22,0.02
2013-2-16,45,36,32,42,36,32,100,99,88,0.00,40.00,19,16,24,0.03
2013-2-17,35,32,30,33,32,30,100,99,92,0.00,40.00,19,10,23,0.02
2013-2-18,33,32,31,33,32,30,100,99,92,0.00,40.00,19,10,24,0.01
2013-2-19,42,34,32,36,33,31,100,96,69,0.00,40.00,17,9,24,0.00
2013-2-20,34,33,32,33,32,28,100,98,79,0.00,40.00,16,8,23,0.00
2013-2-21,34,33,31,34,33,31,100,100,100,0.00,40.00,18,4,24,0.01
2013-2-22,35,33,30,35,33,30,100,100,100,0.00,40.00,19,14,111,0.03
2013-2-23,33,32,30,33,32,30,100,100,100,0.00,40.00,20,16,24,0.01
2013-2-24,35,33,31,34,32,30,100,98,86,0.00,40.00,19,16,24,0.01
2013-2-25,33,32,31,33,32,31,100,100,92,0.00,40.00,19,15,24,0.00
2013-2-26,33,32,30,33,32,30,100,100,100,0.00,40.00,18,12,24,0.00
2013-2-27,39,36,32,39,36,32,100,100,100,0.00,40.00,18,12,23,0.00
2013-2-28,45,41,36,45,41,36,100,100,100,0.00,40.00,19,15,24,0.00
2013-3-1,46,44,42,46,44,42,100,100,100,0.00,40.00,18,14,24,0.00
2013-3-2,43,40,32,43,40,32,100,99,95,0.00,40.00,19,13,23,0.00
2013-3-3,38,33,30,33,31,29,100,92,74,0.00,40.00,17,10,23,0.00
2013-3-4,45,36,29,32,25,19,100,69,40,0.00,40.00,17,10,23,0.00
2013-3-5,38,35,32,35,30,20,100,85,49,0.00,40.00,20,15,24,0.00
2013-3-6,34,33,32,34,33,32,100,100,100,0.00,40.00,19,8,24,0.00
2013-3-7,45,36,32,36,34,32,100,93,61,0.00,40.00,20,11,24,0.00
2013-3-8,42,35,32,40,35,32,100,98,85,0.00,40.00,10,5,18,0.00
2013-3-9,51,41,33,40,31,22,100,71,45,0.00,40.00,11,5,16,0.00
2013-3-10,40,37,34,39,36,27,100,97,66,0.00,40.00,15,6,23,0.00
2013-3-11,42,39,36,42,39,36,100,100,100,0.00,40.00,19,7,23,0.00
2013-3-12,44,43,41,44,43,41,100,100,100,0.00,40.00,19,16,23,0.00
2013-3-13,48,43,40,46,42,40,100,98,82,0.00,40.00,18,15,23,0.00
2013-3-14,49,43,39,45,42,39,100,96,77,0.00,40.00,18,12,23,0.07
2013-3-15,47,43,40,46,43,40,100,99,91,0.00,40.00,18,14,23,0.07
2013-3-16,40,36,31,40,36,31,100,100,100,0.00,40.00,19,14,24,0.01
2013-3-17,33,31,29,33,31,29,100,100,100,0.00,40.00,19,16,24,0.01
2013-3-18,40,33,30,35,32,28,100,95,76,0.00,40.00,17,11,23,0.01
2013-3-19,40,36,32,39,30,18,100,81,45,0.00,40.00,19,15,24,0.00
2013-3-20,44,36,30,44,36,30,100,100,100,0.00,40.00,19,14,24,0.00
2013-3-21,33,30,28,33,30,28,100,100,100,0.00,40.00,18,15,33,0.00
2013-3-22,33,30,27,33,30,27,100,100,99,0.00,40.00,18,14,23,0.00
2013-3-23,37,31,28,33,29,24,100,91,73,0.00,40.00,4,2,11,0.00
2013-3-24,45,37,32,31,27,23,90,67,56,0.00,40.00,12,6,18,0.00
2013-3-25,53,43,37,35,30,25,72,61,49,0.00,40.00,7,4,14,0.00
2013-3-26,48,44,40,40,36,30,93,75,60,0.00,40.00,6,3,11,0.00
2013-3-27,56,44,39,44,41,37,100,92,62,0.00,40.00,8,5,15,0.02
2013-3-28,52,47,43,44,42,39,100,83,61,0.00,40.00,8,5,20,0.33
2013-3-29,55,47,41,46,42,36,100,85,66,0.00,40.00,6,4,14,0.03
2013-3-30,61,49,39,46,40,-100,100,76,56,0.00,40.00,10,6,15,0.01
2013-3-31,69,56,46,46,42,34,83,61,37,0.00,40.00,14,6,21,0.00
2013-4-1,54,47,41,48,44,41,100,87,66,0.00,40.00,14,8,22,0.04
2013-4-2,48,42,40,47,42,40,100,100,95,0.00,40.00,10,6,23,0.06
2013-4-3,56,47,39,46,42,39,100,84,55,0.00,40.00,10,6,17,0.01
2013-4-4,52,48,44,48,44,40,100,89,65,0.00,40.00,17,13,23,0.22
2013-4-5,45,43,39,45,43,39,100,100,100,0.00,40.00,19,15,24,1.63
2013-4-6,43,39,35,43,39,35,100,100,92,0.00,40.00,18,14,24,1.07
2013-4-7,39,35,32,39,35,32,100,100,100,0.00,40.00,19,16,24,0.86
2013-4-8,41,36,32,39,36,32,100,97,85,0.00,40.00,18,14,23,0.06
2013-4-9,45,39,34,41,37,34,100,93,71,0.00,40.00,18,9,23,0.00
2013-4-10,44,40,35,44,40,35,100,98,90,0.00,40.00,19,17,23,0.40
2013-4-11,46,38,33,40,35,27,100,89,60,0.00,40.00,17,10,23,0.06
2013-4-12,38,35,32,38,33,29,100,92,78,0.00,40.00,18,10,24,0.16
2013-4-13,34,32,29,34,32,29,100,100,100,0.00,40.00,19,16,24,0.16
2013-4-14,43,34,32,37,33,32,100,96,69,0.00,40.00,17,11,23,0.07
2013-4-15,45,37,31,36,32,30,100,86,59,0.00,40.00,16,8,23,0.01
2013-4-16,49,40,33,37,33,28,100,79,51,0.00,40.00,14,7,22,0.08
2013-4-17,49,40,35,39,33,28,98,75,60,0.00,40.00,18,8,23,0.08
2013-4-18,42,37,32,42,37,32,100,99,91,0.00,40.00,19,10,24,0.07
2013-4-19,44,42,39,44,42,39,100,100,100,0.00,40.00,19,16,24,0.49
2013-4-20,42,39,37,41,39,37,100,99,91,0.00,40.00,19,14,23,0.02
2013-4-21,42,38,35,42,37,34,100,98,81,0.00,40.00,17,11,23,0.01
2013-4-22,54,41,32,39,33,23,100,77,44,0.00,40.00,14,8,23,0.01
2013-4-23,59,46,38,31,24,20,72,44,29,0.00,40.00,10,8,22,0.00
2013-4-24,64,51,39,36,29,22,71,45,26,0.00,40.00,15,8,23,0.00
2013-4-25,68,55,46,46,35,27,71,48,36,0.00,40.00,11,5,20,0.00
2013-4-26,67,59,49,48,35,15,53,41,18,0.00,40.00,7,4,12,0.00
2013-4-27,54,45,41,44,35,15,100,73,21,0.00,40.00,17,13,24,0.00
2013-4-28,47,42,39,42,40,37,100,95,72,0.00,40.00,18,14,23,0.05
2013-4-29,43,38,32,42,35,29,100,90,59,0.00,40.00,19,16,24,0.23
2013-4-30,48,38,32,33,30,27,100,74,47,0.00,40.00,18,12,23,0.01
2013-5-1,59,44,33,35,28,20,85,58,29,0.00,40.00,12,6,19,0.01
2013-5-2,67,53,43,39,30,21,60,43,20,0.00,40.00,16,8,23,0.00
2013-5-3,63,51,41,42,35,26,79,56,32,0.00,40.00,14,11,24,0.00
2013-5-4,71,58,47,44,38,30,76,50,28,0.00,40.00,13,9,23,0.00
2013-5-5,77,64,52,38,34,32,53,35,21,0.00,40.00,16,9,23,0.00
2013-5-6,76,69,63,50,38,25,49,33,21,0.00,40.00,11,6,17,0.00
2013-5-7,66,56,42,52,46,36,100,71,40,0.00,40.00,8,4,13,0.00
2013-5-8,63,51,42,52,47,42,100,87,61,0.00,40.00,9,4,15,0.00
2013-5-9,71,59,48,52,48,41,95,70,39,0.00,40.00,8,5,19,0.00
2013-5-10,76,65,53,54,49,43,76,57,31,0.00,40.00,7,4,16,0.00
2013-5-11,75,63,57,55,46,-100,82,58,38,0.00,40.00,18,8,22,0.00
2013-5-12,60,54,49,54,50,47,100,86,68,0.00,40.00,18,10,23,0.01
2013-5-13,50,46,38,50,46,36,100,97,88,0.00,40.00,19,13,24,0.43
2013-5-14,53,45,37,42,38,34,100,79,55,0.00,40.00,11,5,23,0.04
2013-5-15,46,45,42,46,42,39,100,90,75,0.00,40.00,14,6,21,0.12
2013-5-16,58,43,43,49,25,-100,100,96,64,0.00,40.00,20,10,23,0.20
2013-5-17,48,43,40,47,39,-100,100,96,76,0.00,40.00,19,12,24,0.15
2013-5-18,48,43,40,46,43,40,100,99,92,0.00,40.00,13,7,22,0.06
2013-5-19,54,46,41,46,43,41,100,90,65,0.00,40.00,12,8,20,0.02
2013-5-20,67,50,42,49,44,41,100,81,53,0.00,40.00,11,5,19,0.01
2013-5-21,42,38,36,42,38,36,100,100,92,0.00,40.00,18,13,23,0.34
2013-5-22,39,36,33,39,36,33,100,100,100,0.00,40.00,18,10,24,0.68
2013-5-23,41,39,35,41,39,35,100,100,100,0.00,40.00,18,12,23,1.08
2013-5-24,43,40,38,43,40,38,100,100,100,0.00,40.00,18,11,23,0.50
2013-5-25,50,43,39,48,42,38,100,98,88,0.00,40.00,12,6,19,0.01
2013-5-26,50,46,43,48,46,43,100,99,92,0.00,40.00,14,9,23,0.39
2013-5-27,49,45,42,49,45,42,100,100,100,0.00,40.00,19,16,23,0.37
2013-5-28,48,44,42,48,44,41,100,99,91,0.00,40.00,14,11,23,0.29
2013-5-29,45,43,40,45,43,40,100,99,93,0.00,40.00,18,12,23,0.88
2013-5-30,48,42,39,45,42,39,100,98,87,0.00,40.00,17,12,23,0.19
2013-5-31,57,48,40,44,42,39,100,82,59,0.00,40.00,11,5,21,0.03
2013-6-1,63,53,47,49,44,38,94,71,56,0.00,40.00,10,5,18,0.00
2013-6-2,60,50,45,51,47,44,100,89,68,0.00,40.00,12,8,22,0.00
2013-6-3,66,52,42,51,45,21,100,77,31,0.00,40.00,11,5,18,0.00
2013-6-4,72,58,46,49,46,13,97,66,21,0.00,40.00,11,7,20,0.00
2013-6-5,73,62,55,57,49,41,79,62,52,0.00,40.00,12,5,19,0.00
2013-6-6,71,59,50,55,47,25,96,67,28,0.00,40.00,16,8,22,0.00
2013-6-7,61,55,48,53,32,9,85,48,16,0.00,40.00,14,8,22,0.00
2013-6-8,66,53,43,49,42,32,92,67,54,0.00,40.00,12,5,18,0.00
2013-6-9,61,50,41,45,42,39,100,74,51,0.00,40.00,16,8,22,0.00
2013-6-10,53,47,39,45,41,35,92,81,69,0.00,40.00,17,8,23,0.00
2013-6-11,53,44,40,43,41,39,100,88,66,0.00,40.00,18,13,23,0.00
2013-6-12,48,44,41,46,42,39,100,95,83,0.00,40.00,18,9,23,0.04
2013-6-13,52,46,42,48,44,42,100,95,82,0.00,40.00,18,11,23,0.38
2013-6-14,55,47,42,49,45,41,100,93,81,0.00,40.00,17,6,23,0.01
2013-6-15,71,56,44,53,47,44,100,76,40,0.00,40.00,10,6,17,0.00
2013-6-16,61,54,47,53,49,46,100,84,62,0.00,40.00,11,4,21,0.00
2013-6-17,63,51,47,52,48,45,100,90,55,0.00,40.00,16,7,23,0.25
2013-6-18,56,48,44,48,45,43,100,91,67,0.00,40.00,16,11,22,0.25
2013-6-19,55,48,43,46,44,43,100,89,67,0.00,40.00,19,12,23,0.01
2013-6-20,48,46,44,47,46,44,100,100,98,0.00,40.00,18,14,23,0.00
2013-6-22,68,60,49,53,48,45,93,67,47,0.00,40.00,6,4,15,0.13
2013-6-23,60,56,52,56,52,48,100,88,71,0.00,40.00,17,6,22,0.08
2013-6-24,54,50,46,54,50,46,100,100,100,0.00,40.00,18,11,23,0.65
2013-6-25,55,50,48,54,50,48,100,99,96,0.00,40.00,17,14,23,0.41
2013-6-26,57,53,49,56,52,48,100,98,91,0.00,40.00,16,11,22,0.53
2013-6-27,60,56,54,59,56,53,100,98,92,0.00,40.00,15,8,22,0.31
2013-6-28,75,66,57,62,57,51,100,76,57,0.00,40.00,12,7,22,0.01
2013-6-29,78,68,60,61,55,47,80,63,44,0.00,40.00,12,4,17,0.00
2013-6-30,87,72,59,65,60,54,86,67,47,0.00,40.00,9,5,13,0.00
2013-7-1,80,70,64,65,59,53,76,67,58,0.00,40.00,13,7,21,0.00
2013-7-2,77,67,61,60,53,43,82,62,45,0.00,40.00,16,6,20,0.00
2013-7-3,72,61,53,55,47,35,70,58,46,0.00,40.00,17,8,22,0.00
2013-7-4,61,53,45,49,46,38,98,78,63,0.00,40.00,15,9,22,0.00
2013-7-5,67,52,45,54,48,44,100,88,63,0.00,40.00,15,7,19,0.00
2013-7-6,70,56,48,57,50,45,96,80,52,0.00,40.00,12,6,22,0.00
2013-7-7,66,59,52,58,52,42,91,79,66,0.00,40.00,11,6,17,0.00
2013-7-8,71,55,45,57,50,42,100,83,57,0.00,40.00,7,3,15,0.00
2013-7-9,78,65,55,56,53,40,94,68,42,0.00,40.00,11,8,22,0.00
2013-7-10,68,57,48,53,44,-100,82,66,45,0.00,40.00,13,6,22,0.00
2013-7-11,66,52,42,48,43,40,97,73,49,0.00,40.00,14,8,22,0.00
2013-7-12,59,51,44,50,45,39,94,79,64,0.00,40.00,11,5,18,0.00
2013-7-13,68,56,46,48,41,33,78,58,37,0.00,40.00,11,6,22,0.00
2013-7-14,76,61,51,49,43,28,74,53,30,0.00,40.00,13,9,22,0.00
2013-7-15,72,60,49,50,44,34,80,59,27,0.00,40.00,12,9,24,0.00
2013-7-16,76,70,64,54,47,40,57,44,29,0.00,40.00,12,6,22,0.00
2013-7-17,66,56,50,54,51,44,100,86,47,0.00,40.00,19,6,23,0.01
2013-7-18,70,56,47,57,52,47,100,88,63,0.00,40.00,10,5,16,0.01
2013-7-19,71,60,51,58,54,48,100,80,61,0.00,40.00,16,8,21,0.00
2013-7-20,69,60,52,58,50,-100,98,72,50,0.00,40.00,13,6,21,0.00
2013-7-21,70,60,52,59,52,43,89,73,59,0.00,40.00,8,5,14,0.00
2013-7-22,70,59,49,58,52,44,88,77,65,0.00,40.00,6,3,13,0.00
2013-7-23,80,64,54,59,55,47,100,74,42,0.00,40.00,12,8,21,0.00
2013-7-24,79,68,60,58,51,42,69,54,42,0.00,40.00,13,6,20,0.00
2013-7-25,79,68,59,52,46,24,71,48,23,0.00,40.00,13,6,17,0.00
2013-7-26,76,66,56,52,44,34,73,48,32,0.00,40.00,17,8,22,0.00
2013-7-27,67,57,49,53,46,33,84,69,45,0.00,40.00,13,8,21,0.00
2013-7-28,55,51,47,50,46,37,100,84,54,0.00,40.00,13,7,22,0.00
2013-7-29,70,54,46,56,50,46,100,87,55,0.00,40.00,8,4,14,0.00
2013-7-30,72,62,52,59,53,45,88,73,60,0.00,40.00,7,3,11,0.00
2013-7-31,70,61,52,58,52,45,100,76,51,0.00,40.00,9,3,17,0.02
2013-8-1,55,51,48,55,51,48,100,100,100,0.00,40.00,11,7,20,0.10
2013-8-2,56,51,48,55,51,48,100,100,98,0.00,40.00,19,9,23,0.07
2013-8-3,65,57,50,57,54,50,100,90,72,0.00,40.00,12,5,20,0.01
2013-8-4,78,62,53,61,56,53,100,85,51,0.00,40.00,11,7,20,0.01
2013-8-5,80,67,57,59,55,52,90,68,48,0.00,40.00,9,5,18,0.00
2013-8-6,79,72,60,56,52,31,78,51,30,0.00,40.00,8,4,15,0.00
2013-8-7,79,69,60,57,48,34,73,49,31,0.00,40.00,16,7,22,0.00
2013-8-8,72,61,54,59,54,50,94,78,62,0.00,40.00,14,8,22,0.00
2013-8-9,73,64,56,57,54,49,87,71,51,0.00,40.00,9,6,19,0.00
2013-8-10,71,62,55,60,55,49,100,81,60,0.00,40.00,11,5,17,0.01
2013-8-11,61,55,51,58,54,51,100,97,79,0.00,40.00,6,4,13,0.02
2013-8-12,67,56,50,55,52,49,100,87,60,0.00,40.00,12,4,17,0.01
2013-8-13,75,61,49,55,48,-100,99,69,42,0.00,40.00,5,3,11,0.00
2013-8-14,66,63,58,58,52,47,91,68,54,0.00,40.00,13,8,23,0.07
2013-8-15,61,55,57,61,47,-100,100,92,84,0.00,40.00,16,7,23,0.37
2013-8-16,71,60,56,61,54,-100,100,86,57,0.00,40.00,15,6,20,0.01
2013-8-17,66,58,54,58,52,-100,100,84,58,0.00,40.00,15,7,17,0.00
2013-8-18,69,59,51,57,54,48,100,82,61,0.00,40.00,10,5,19,0.00
2013-8-19,69,57,51,57,42,-100,100,73,53,0.00,40.00,13,7,22,0.00
2013-8-20,69,58,49,52,46,-100,100,69,47,0.00,40.00,16,9,23,0.00
2013-8-21,73,62,51,49,44,39,77,54,37,0.00,40.00,13,10,23,0.00
2013-8-22,74,65,58,56,51,47,71,62,48,0.00,40.00,11,6,19,0.00
2013-8-23,64,56,51,54,52,47,100,88,55,0.00,40.00,12,7,21,0.00
2013-8-24,63,55,50,56,50,-100,100,88,68,0.00,40.00,10,4,16,0.07
2013-8-25,66,54,49,57,50,43,98,85,63,0.00,40.00,11,4,14,0.01
2013-8-26,62,54,51,54,52,48,100,94,66,0.00,40.00,15,11,23,0.10
2013-8-27,58,54,52,58,54,52,100,100,100,0.00,40.00,16,11,23,0.24
2013-8-28,70,62,56,60,57,56,100,86,71,0.00,40.00,10,5,17,0.20
2013-8-29,62,59,56,62,58,55,100,99,91,0.00,40.00,15,10,23,1.04
2013-8-30,66,58,53,56,54,50,100,87,59,0.00,40.00,16,6,23,0.10
2013-8-31,77,62,52,59,53,-100,97,75,53,0.00,40.00,9,5,15,0.01
2013-9-1,70,61,55,56,52,47,93,72,56,0.00,40.00,14,7,22,0.00
2013-9-2,68,60,56,56,53,49,91,77,62,0.00,40.00,16,8,23,0.00
2013-9-3,68,59,53,60,54,48,100,83,62,0.00,40.00,13,6,18,0.21
2013-9-4,63,58,53,59,56,52,100,95,80,0.00,40.00,7,4,16,0.01
2013-9-5,58,56,54,58,56,54,100,100,98,0.00,40.00,17,8,23,0.61
2013-9-6,56,54,53,56,54,53,100,100,100,0.00,40.00,19,14,23,1.69
2013-9-7,68,57,52,60,54,-100,100,92,70,0.00,40.00,9,5,20,0.05
2013-9-8,74,62,54,60,57,54,100,86,56,0.00,40.00,10,7,21,0.00
2013-9-9,73,63,55,61,57,53,100,84,65,0.00,40.00,8,5,18,0.00
2013-9-10,72,63,54,60,57,54,100,83,62,0.00,40.00,10,7,21,0.00
2013-9-11,85,78,70,61,53,46,74,44,30,0.00,40.00,13,5,18,0.00
2013-9-12,83,70,64,65,60,54,88,71,42,0.00,40.00,8,4,11,0.00
2013-9-13,71,62,53,61,58,53,100,88,69,0.00,40.00,8,3,10,0.00
2013-9-14,72,59,53,64,55,-100,100,88,69,0.00,40.00,12,6,17,0.01
2013-9-15,59,56,52,58,55,52,100,98,90,0.00,40.00,11,7,22,0.11
2013-9-16,55,52,50,55,52,50,100,100,98,0.00,40.00,19,11,23,0.41
2013-9-17,58,51,48,50,46,39,100,84,67,0.00,40.00,19,11,23,0.02
2013-9-18,52,48,47,48,47,46,100,97,85,0.00,40.00,19,13,23,0.02
2013-9-19,67,58,49,48,44,38,98,62,41,0.00,40.00,16,11,23,0.00
2013-9-20,60,54,50,52,48,42,100,81,57,0.00,40.00,16,11,23,0.14
2013-9-21,58,50,48,52,48,-100,100,94,70,0.00,40.00,14,8,22,0.22
2013-9-22,50,48,46,50,48,46,100,100,100,0.00,40.00,17,14,23,0.75
2013-9-23,49,47,44,49,47,44,100,100,100,0.00,40.00,16,11,23,0.86
2013-9-25,47,45,43,47,45,42,100,99,98,0.00,40.00,9,7,16,0.00
2013-9-26,45,44,43,44,42,40,100,92,86,0.00,40.00,11,9,17,0.00
2013-9-30,44,43,41,44,43,41,100,99,96,0.00,40.00,17,16,23,0.16
2013-10-1,45,42,41,43,41,40,100,96,83,0.00,40.00,17,14,23,0.57
2013-10-2,42,40,38,42,40,38,100,100,94,0.00,40.00,17,12,23,0.38
2013-10-3,48,42,38,45,41,38,100,97,84,0.00,40.00,10,5,16,0.01
2013-10-4,58,49,39,41,37,33,100,68,44,0.00,40.00,14,9,22,0.00
2013-10-5,62,55,51,44,36,29,61,49,31,0.00,40.00,9,5,16,0.00
2013-10-6,61,55,46,47,40,33,86,58,40,0.00,40.00,18,13,23,0.00
2013-10-7,47,44,41,47,44,41,100,99,90,0.00,40.00,18,16,23,0.25
2013-10-8,47,41,38,43,40,35,100,95,74,0.00,40.00,19,13,23,0.16
2013-10-9,52,42,37,46,40,37,100,91,68,0.00,40.00,13,6,22,0.05
2013-10-10,45,43,41,45,41,32,100,95,64,0.00,40.00,15,8,22,0.03
2013-10-11,45,43,41,45,42,40,100,98,90,0.00,40.00,12,7,18,0.05
2013-10-12,47,41,38,42,38,-100,100,92,81,0.00,40.00,11,5,20,0.04
2013-10-13,50,43,39,44,41,39,100,95,75,0.00,40.00,8,6,18,0.01
2013-10-14,50,44,39,42,39,36,100,83,61,0.00,40.00,9,6,23,0.00
2013-10-15,63,51,44,42,39,33,92,66,43,0.00,40.00,13,4,19,0.00
2013-10-16,54,47,41,45,41,36,100,81,63,0.00,40.00,10,5,17,0.00
2013-10-17,61,51,45,44,40,36,90,66,43,0.00,40.00,12,4,18,0.00
2013-10-18,62,53,46,46,38,31,87,59,31,0.00,40.00,11,6,22,0.00
2013-10-19,65,54,49,45,38,-100,74,58,43,0.00,40.00,13,5,18,0.00
2013-10-20,71,56,48,42,35,28,76,48,27,0.00,40.00,12,6,17,0.00
2013-10-21,69,64,59,42,36,33,48,37,30,0.00,40.00,16,9,22,0.00
2013-10-22,72,66,60,40,36,31,45,33,28,0.00,40.00,14,7,19,0.00
2013-10-23,70,64,55,46,39,31,52,40,35,0.00,40.00,14,5,20,0.00
2013-10-24,64,58,54,39,37,35,53,45,36,0.00,40.00,10,6,14,0.00
2013-10-26,-200,0,200,-100,-100,-100,0,0,100,0.00,40.00,14,14,0,0.00
2013-10-28,49,43,38,38,30,-100,84,66,58,0.00,40.00,10,8,25,0.01
2013-10-29,52,44,38,33,29,24,69,57,41,0.00,40.00,16,8,21,0.01
2013-10-30,46,42,39,40,36,29,99,81,57,0.00,40.00,17,12,23,0.01
2013-10-31,48,43,40,48,43,39,100,99,95,0.00,40.00,32,18,41,0.04
2013-11-1,57,48,43,46,43,38,100,84,58,0.00,40.00,27,13,37,0.02
2013-11-2,44,39,35,44,38,-100,100,97,94,0.00,40.00,44,31,68,1.43
2013-11-3,41,36,34,38,34,32,99,94,86,0.00,40.00,28,21,45,0.09
2013-11-4,39,37,34,39,37,33,100,99,96,0.00,40.00,23,10,34,0.36
2013-11-5,43,41,38,43,41,38,100,100,100,0.00,40.00,30,16,40,0.71
2013-11-6,47,42,39,47,42,37,100,97,89,0.00,40.00,22,11,31,0.37
2013-11-7,47,42,38,47,42,38,100,100,100,0.00,40.00,31,20,57,1.59
2013-11-8,40,40,40,40,40,40,100,100,100,0.00,40.00,0,0,0,0.00
2013-11-9,41,41,41,35,35,35,80,80,80,0.00,40.00,0,0,0,0.00
2013-11-12,46,45,43,46,45,42,100,100,95,0.00,40.00,17,-105,22,0.03
2013-11-13,45,43,40,45,43,40,100,100,99,0.00,40.00,19,8,28,0.06
2013-11-14,41,38,36,41,38,36,100,100,100,0.00,40.00,15,10,22,0.07
2013-11-15,41,37,34,41,37,34,100,100,96,0.00,40.00,37,20,56,1.16
2013-11-16,37,35,33,37,33,-100,100,97,89,0.00,40.00,31,22,51,0.83
2013-11-17,42,39,35,42,39,35,100,100,100,0.00,40.00,19,14,31,1.63
2013-11-18,44,42,41,44,42,41,100,100,100,0.00,40.00,27,20,41,2.13
2013-11-19,45,36,27,45,35,21,100,97,77,0.00,40.00,23,14,35,1.64
2013-11-20,31,27,24,27,24,20,97,88,76,0.00,40.00,18,13,28,0.01
2013-11-21,33,27,22,23,20,12,93,76,47,0.00,40.00,17,11,24,0.00
2013-11-22,47,34,28,17,12,3,61,43,16,0.00,40.00,18,14,26,0.00
2013-11-23,53,49,47,15,12,-100,25,23,22,0.00,40.00,18,14,26,0.00
2013-11-24,54,49,45,18,16,11,34,27,20,0.00,40.00,22,15,26,0.00
2013-11-25,52,46,42,23,17,13,46,31,21,0.00,40.00,29,16,36,0.00
2013-11-26,47,43,40,38,24,17,82,48,31,0.00,40.00,29,22,35,0.00
2013-11-27,55,50,46,30,26,22,53,38,31,0.00,40.00,17,10,22,0.00
2013-11-28,56,50,47,31,25,22,49,38,30,0.00,40.00,12,6,16,0.00
2013-11-29,48,42,38,43,37,27,100,85,47,0.00,40.00,13,7,19,0.01
2013-11-30,40,38,38,40,36,-100,100,96,81,0.00,40.00,24,20,30,0.21
2013-12-1,46,44,37,46,44,37,100,100,100,0.00,40.00,41,32,67,3.19
2013-12-2,34,30,27,34,30,27,100,98,97,0.00,40.00,39,19,59,0.62
2013-12-3,29,25,21,28,24,19,98,95,92,0.00,40.00,15,8,21,0.01
2013-12-4,28,23,20,21,19,16,94,84,73,0.00,40.00,11,5,15,0.01
2013-12-5,24,21,18,19,14,7,94,78,57,0.00,40.00,22,9,30,0.01
2013-12-6,19,16,12,16,12,5,91,84,62,0.00,40.00,20,10,30,0.00
2013-12-7,20,12,8,5,1,-100,73,61,50,0.00,40.00,11,7,23,0.00
2013-12-8,23,18,13,14,6,-3,74,58,42,0.00,40.00,10,6,14,0.00
2013-12-9,29,26,22,29,22,9,98,86,54,0.00,40.00,17,11,21,0.00
2013-12-10,32,30,28,32,17,-100,100,89,98,0.00,40.00,20,9,25,0.01
2013-12-11,39,34,32,32,18,-100,99,67,61,0.00,40.00,28,19,35,0.03
2013-12-12,38,32,28,32,28,25,100,84,64,0.00,40.00,29,22,38,0.07
2013-12-13,39,37,34,39,37,34,100,100,100,0.00,40.00,22,15,27,0.28
2013-12-14,39,37,37,39,36,-100,100,100,100,0.00,40.00,28,19,34,0.03
2013-12-15,42,39,36,42,39,36,100,100,100,0.00,40.00,26,16,31,0.10
2013-12-16,52,39,34,38,34,18,100,86,26,0.00,40.00,12,8,15,0.01
2013-12-17,50,45,38,41,31,16,100,65,26,0.00,40.00,17,12,25,0.02
2013-12-18,37,33,27,37,32,24,100,97,88,0.00,40.00,18,12,28,0.04
2013-12-19,28,26,23,28,21,10,99,81,48,0.00,40.00,13,8,24,0.01
2013-12-20,39,32,25,39,29,16,100,91,65,0.00,40.00,31,12,45,0.27
2013-12-21,39,37,36,39,36,-100,100,99,100,0.00,40.00,19,2,32,0.33
2013-12-22,42,40,38,42,40,38,100,100,100,0.00,40.00,27,16,40,0.17
2013-12-23,42,38,33,42,38,33,100,100,99,0.00,40.00,28,17,38,0.58
2013-12-24,38,33,31,36,32,31,100,96,86,0.00,40.00,17,6,26,0.04
2013-12-25,52,39,32,38,23,2,99,63,16,0.00,40.00,11,6,15,0.00
2013-12-26,56,48,43,42,40,32,89,73,51,0.00,40.00,15,4,18,0.00
2013-12-27,47,42,34,42,37,33,100,83,62,0.00,40.00,21,13,34,0.01
2013-12-28,38,33,32,35,32,-100,100,97,88,0.00,40.00,11,4,16,0.01
2013-12-29,46,40,33,34,28,21,100,63,44,0.00,40.00,9,2,11,0.01
2013-12-30,51,44,38,39,34,23,88,68,47,0.00,40.00,25,12,33,0.00
2013-12-31,40,38,35,40,36,30,100,92,68,0.00,40.00,22,12,35,0.02
2014-1-1,49,42,36,41,34,17,100,75,30,0.00,40.00,10,6,14,0.02
2014-1-2,47,41,36,39,34,27,100,78,46,0.00,40.00,27,22,37,0.27